Time;durP1;ratioP1;P1;durP2;ratioP2;P2;SDS_P1;SDS_P2;PMS_P1;PMS_P2;Temp;Humidity;BMP_temperature;BMP_pressure;BME280_temperature;BME280_humidity;BME280_pressure;Samples;Min_cycle;Max_cycle;Signal;HPM_P1;HPM_P2
2023/08/04 00:03:02;;;;;;;2.30;2.20;;;17.00;1.00;;;;;;6000247;23;20462;-88
2023/08/04 00:37:11;;;;;;;2.57;2.37;;;16.80;99.90;;;;;;6044873;23;20737;-88
2023/08/04 01:04:38;;;;;;;;;;;;;;;;;;;;;
2023/08/04 01:18:20;;;;;;;3.37;3.07;;;17.60;99.90;;;;;;6013133;23;20449;-88
2023/08/04 01:45:00;;;;;;;5.93;3.20;;;17.40;99.90;;;;;;5930670;24;20418;-88
2023/08/04 02:09:27;;;;;;;4.30;3.87;;;17.50;99.90;;;;;;5912967;23;20513;-87
2023/08/04 02:22:41;;;;;;;4.03;3.73;;;17.40;99.90;;;;;;5810774;24;20389;-89
2023/08/04 02:33:33;;;;;;;4.57;3.77;;;17.50;99.90;;;;;;5911404;24;20761;-89
2023/08/04 02:40:42;;;;;;;5.57;4.10;;;17.40;99.90;;;;;;6089590;23;20426;-89
2023/08/04 03:09:01;;;;;;;7.70;4.10;;;17.30;99.90;;;;;;5915437;24;20437;-88
2023/08/04 03:11:47;;;;;;;4.50;4.10;;;17.70;99.90;;;;;;5934560;24;20422;-88
2023/08/04 03:24:20;;;;;;;10.40;4.60;;;17.50;99.90;;;;;;5982038;23;20416;-87
2023/08/04 03:29:54;;;;;;;;;;;;;;;;;;;;;
2023/08/04 03:45:45;;;;;;;7.20;4.80;;;17.30;1.00;;;;;;6120438;23;20400;-88
2023/08/04 03:48:41;;;;;;;16.57;4.93;;;17.30;1.00;;;;;;6238993;22;20464;-88
2023/08/04 03:51:45;;;;;;;7.90;5.67;;;17.20;33.10;;;;;;6254568;23;20378;-87
2023/08/04 03:57:44;;;;;;;8.70;5.40;;;17.20;75.20;;;;;;6241446;23;20440;-87
2023/08/04 04:15:18;;;;;;;9.43;5.67;;;16.80;99.90;;;;;;5870852;24;20505;-87
2023/08/04 04:40:15;;;;;;;7.90;5.53;;;16.80;1.00;;;;;;6186361;23;20410;-92
2023/08/04 04:59:06;;;;;;;;;;;;;;;;;;;;;
2023/08/04 05:12:57;;;;;;;9.00;6.70;;;17.40;1.00;;;;;;6165030;23;20408;-92
2023/08/04 05:15:53;;;;;;;8.33;5.17;;;17.30;99.90;;;;;;6163488;23;20479;-93
2023/08/04 05:25:52;;;;;;;9.17;4.67;;;17.40;99.90;;;;;;5982749;23;20425;-92
2023/08/04 05:28:56;;;;;;;;;;;;;;;;;;;;;
2023/08/04 05:35:54;;;;;;;11.93;4.23;;;17.40;99.90;;;;;;5907647;23;20451;-92
2023/08/04 05:52:20;;;;;;;;;;;;;;;;;;;;;
2023/08/04 06:03:32;;;;;;;6.67;4.43;;;18.10;99.90;;;;;;6198711;23;20449;-92
2023/08/04 06:12:37;;;;;;;8.13;4.50;;;17.40;1.00;;;;;;6003158;23;20421;-90
2023/08/04 06:15:07;;;;;;;5.47;4.37;;;;;;;;;;6191172;23;20410;-90
2023/08/04 06:18:12;;;;;;;14.70;4.30;;;17.60;1.00;;;;;;6244192;22;20432;-87
2023/08/04 06:21:23;;;;;;;10.23;4.43;;;17.70;1.00;;;;;;6215562;23;20423;-88
2023/08/04 06:24:06;;;;;;;6.17;4.93;;;17.80;1.00;;;;;;6244077;22;20423;-88
2023/08/04 06:26:59;;;;;;;7.03;4.23;;;17.70;99.90;;;;;;6261965;22;20422;-88
2023/08/04 06:30:07;;;;;;;6.43;4.03;;;17.80;1.00;;;;;;6238605;22;20403;-88
2023/08/04 06:32:56;;;;;;;6.20;4.50;;;17.90;1.00;;;;;;6233199;23;20406;-89
2023/08/04 06:35:57;;;;;;;5.37;4.80;;;18.00;1.00;;;;;;6225735;23;20409;-89
2023/08/04 06:41:24;;;;;;;6.63;3.90;;;18.10;99.90;;;;;;6215332;23;20408;-88
2023/08/04 06:44:01;;;;;;;10.93;4.40;;;;;;;;;;6225122;23;20410;-88
2023/08/04 06:46:42;;;;;;;7.63;3.53;;;18.00;82.30;;;;;;6223503;23;20453;-88
2023/08/04 06:55:25;;;;;;;8.63;4.20;;;18.10;99.90;;;;;;6078355;23;20415;-89
2023/08/04 06:58:02;;;;;;;6.83;3.60;;;18.10;99.90;;;;;;6249584;22;20445;-89
2023/08/04 07:00:57;;;;;;;5.50;3.80;;;18.00;1.00;;;;;;6252881;23;20408;-89
2023/08/04 07:03:47;;;;;;;3.93;3.20;;;17.90;1.00;;;;;;6254383;23;20416;-88
2023/08/04 07:07:17;;;;;;;8.57;7.67;;;18.50;97.50;;;;;;6261771;22;20433;-89
2023/08/04 07:10:25;;;;;;;5.90;3.80;;;18.30;1.00;;;;;;6079702;23;20503;-89
2023/08/04 07:13:02;;;;;;;7.60;4.23;;;18.50;12.60;;;;;;6243900;23;20488;-89
2023/08/04 07:15:49;;;;;;;9.77;4.03;;;18.60;1.00;;;;;;6252151;23;20408;-89
2023/08/04 07:18:42;;;;;;;5.70;3.67;;;18.40;1.00;;;;;;6252986;23;20491;-88
2023/08/04 07:21:28;;;;;;;8.63;3.57;;;18.50;1.00;;;;;;6268385;23;20402;-89
2023/08/04 07:23:55;;;;;;;4.80;3.60;;;;;;;;;;6267385;23;20421;-88
2023/08/04 07:26:41;;;;;;;4.00;3.60;;;18.70;1.00;;;;;;6252761;22;20429;-89
2023/08/04 07:29:25;;;;;;;4.03;3.13;;;18.70;1.00;;;;;;6252338;23;20401;-89
2023/08/04 07:35:10;;;;;;;3.47;3.17;;;15.80;99.90;;;;;;6235132;23;20436;-88
2023/08/04 07:37:51;;;;;;;5.80;3.50;;;18.80;1.00;;;;;;6254314;22;20449;-89
2023/08/04 07:40:54;;;;;;;5.87;3.70;;;18.80;1.00;;;;;;6269826;23;20425;-89
2023/08/04 07:46:29;;;;;;;3.30;3.00;;;19.20;1.00;;;;;;6245610;22;20935;-89
2023/08/04 07:49:06;;;;;;;6.03;2.97;;;19.20;1.00;;;;;;6254150;23;20402;-89
2023/08/04 07:54:23;;;;;;;4.30;3.20;;;19.20;1.00;;;;;;6252987;23;20393;-88
2023/08/04 07:57:01;;;;;;;5.20;2.97;;;19.10;99.90;;;;;;6266933;22;20483;-90
2023/08/04 07:59:50;;;;;;;5.97;3.20;;;19.00;1.00;;;;;;6274531;22;20417;-89
2023/08/04 08:11:40;;;;;;;3.57;2.57;;;19.10;1.00;;;;;;6271859;22;20489;-89
2023/08/04 08:14:27;;;;;;;5.20;3.27;;;19.50;99.90;;;;;;6255949;23;20409;-88
2023/08/04 08:17:14;;;;;;;6.70;3.90;;;19.20;99.90;;;;;;6255840;22;20445;-89
2023/08/04 08:20:09;;;;;;;5.17;2.97;;;19.40;1.00;;;;;;6257640;23;20412;-87
2023/08/04 08:22:50;;;;;;;;;;;;;;;;;;;;;
2023/08/04 08:25:27;;;;;;;4.10;2.90;;;19.40;1.00;;;;;;6252504;23;20725;-89
2023/08/04 08:27:59;;;;;;;10.20;4.53;;;19.40;99.90;;;;;;6251677;22;20485;-88
2023/08/04 08:30:38;;;;;;;5.43;3.33;;;19.50;20.10;;;;;;6252438;23;20421;-88
2023/08/04 08:33:30;;;;;;;5.00;3.50;;;19.40;1.00;;;;;;6255493;23;20374;-88
2023/08/04 08:36:06;;;;;;;4.37;3.30;;;19.40;1.00;;;;;;6255991;22;20440;-88
2023/08/04 08:38:40;;;;;;;5.40;3.10;;;;;;;;;;6257992;23;20455;-88
2023/08/04 08:41:21;;;;;;;8.60;3.60;;;19.20;1.00;;;;;;6263515;23;20397;-89
2023/08/04 08:43:55;;;;;;;5.10;3.03;;;19.40;1.00;;;;;;6272687;23;20413;-89
2023/08/04 08:49:17;;;;;;;7.90;3.47;;;19.50;99.90;;;;;;6253282;22;20421;-89
2023/08/04 08:52:00;;;;;;;5.23;3.10;;;19.80;99.90;;;;;;6260504;23;20425;-89
2023/08/04 08:54:40;;;;;;;4.63;3.00;;;19.80;99.90;;;;;;6255559;23;20417;-89
2023/08/04 08:57:24;;;;;;;4.07;3.17;;;19.80;99.90;;;;;;6254791;22;20444;-89
2023/08/04 09:00:00;;;;;;;8.90;3.20;;;20.00;99.90;;;;;;6255216;23;20401;-89
2023/08/04 09:05:25;;;;;;;9.23;3.20;;;20.10;57.60;;;;;;6229362;23;20902;-89
2023/08/04 09:07:57;;;;;;;6.70;3.60;;;20.00;1.00;;;;;;6253426;22;20435;-89
2023/08/04 09:10:47;;;;;;;6.23;3.57;;;19.90;71.40;;;;;;6252172;23;20408;-89
2023/08/04 09:13:30;;;;;;;3.33;3.03;;;19.90;99.90;;;;;;6254428;23;20404;-89
2023/08/04 09:16:08;;;;;;;7.50;3.20;;;19.90;90.00;;;;;;6259610;22;20433;-89
2023/08/04 09:19:06;;;;;;;3.40;2.90;;;20.10;99.90;;;;;;6265921;23;20437;-88
2023/08/04 09:21:55;;;;;;;3.63;3.33;;;20.30;99.90;;;;;;6256975;23;20524;-88
2023/08/04 09:24:26;;;;;;;3.73;2.33;;;20.30;99.90;;;;;;6259374;23;20520;-89
2023/08/04 09:27:11;;;;;;;5.90;2.90;;;20.20;99.90;;;;;;6269972;22;20418;-89
2023/08/04 09:30:07;;;;;;;6.53;3.40;;;20.30;99.90;;;;;;6275857;22;20389;-89
2023/08/04 09:32:43;;;;;;;5.40;3.17;;;20.50;99.90;;;;;;6254354;23;20459;-88
2023/08/04 09:35:17;;;;;;;5.27;3.60;;;20.50;99.90;;;;;;6261364;23;20403;-88
2023/08/04 09:37:46;;;;;;;4.57;3.57;;;;;;;;;;6268095;22;20450;-88
2023/08/04 09:40:19;;;;;;;4.50;3.50;;;20.70;84.50;;;;;;6259130;23;20414;-87
2023/08/04 09:42:48;;;;;;;4.87;4.47;;;20.80;99.90;;;;;;6255459;23;20390;-88
2023/08/04 09:45:17;;;;;;;5.00;3.30;;;20.30;1.00;;;;;;6268090;22;20424;-89
2023/08/04 09:47:48;;;;;;;5.37;4.87;;;20.70;99.90;;;;;;6273460;22;20413;-90
2023/08/04 09:50:25;;;;;;;3.90;2.93;;;20.20;99.90;;;;;;6261323;22;20386;-89
2023/08/04 09:53:07;;;;;;;7.20;2.77;;;20.40;37.50;;;;;;6275420;22;20399;-89
2023/08/04 09:55:39;;;;;;;6.43;3.73;;;;;;;;;;6275391;22;20386;-89
2023/08/04 09:58:13;;;;;;;5.20;3.27;;;;;;;;;;6265960;22;20511;-89
2023/08/04 10:00:48;;;;;;;4.60;4.10;;;20.60;99.90;;;;;;6259793;23;20404;-89
2023/08/04 10:03:16;;;;;;;3.30;2.93;;;;;;;;;;6265378;22;20401;-89
2023/08/04 10:05:45;;;;;;;5.13;2.87;;;;;;;;;;6269092;22;20406;-89
2023/08/04 10:08:17;;;;;;;4.90;3.63;;;20.00;99.90;;;;;;6264583;23;20408;-89
2023/08/04 10:10:44;;;;;;;3.07;2.67;;;;;;;;;;6262879;23;20430;-88
2023/08/04 10:13:16;;;;;;;4.20;3.10;;;20.80;40.90;;;;;;6262529;23;20416;-88
2023/08/04 10:15:48;;;;;;;5.97;3.20;;;20.70;99.90;;;;;;6267076;22;20417;-90
2023/08/04 10:18:37;;;;;;;3.40;3.07;;;20.70;99.90;;;;;;6252006;23;20441;-89
2023/08/04 10:21:06;;;;;;;3.73;2.67;;;;;;;;;;6253412;23;20416;-89
2023/08/04 10:23:36;;;;;;;5.10;3.27;;;20.20;99.90;;;;;;6255285;23;20478;-90
2023/08/04 10:26:11;;;;;;;4.50;3.17;;;20.20;99.90;;;;;;6274284;22;20444;-88
2023/08/04 10:29:04;;;;;;;5.80;3.50;;;19.90;1.00;;;;;;6275027;22;20465;-89
2023/08/04 10:31:55;;;;;;;5.37;3.33;;;19.80;1.00;;;;;;6273880;22;20409;-89
2023/08/04 10:34:31;;;;;;;4.23;3.03;;;19.10;99.90;;;;;;6269019;22;20428;-90
2023/08/04 10:37:10;;;;;;;4.70;2.87;;;19.30;99.90;;;;;;6260320;22;20429;-88
2023/08/04 10:39:43;;;;;;;3.53;2.90;;;19.60;1.00;;;;;;6260696;23;20425;-89
2023/08/04 10:42:21;;;;;;;3.23;2.93;;;19.60;1.00;;;;;;6258597;23;20492;-89
2023/08/04 10:44:54;;;;;;;3.30;2.90;;;20.00;99.90;;;;;;6257633;23;20378;-89
2023/08/04 10:47:33;;;;;;;4.53;3.17;;;20.10;99.90;;;;;;6255675;22;20422;-90
2023/08/04 10:50:05;;;;;;;7.07;3.40;;;20.00;99.90;;;;;;6259333;23;20414;-89
2023/08/04 10:52:33;;;;;;;2.97;2.70;;;19.80;99.90;;;;;;6269983;22;20391;-89
2023/08/04 10:55:11;;;;;;;5.10;2.80;;;20.10;99.90;;;;;;6273896;22;20413;-89
2023/08/04 10:57:52;;;;;;;4.00;3.10;;;20.20;99.90;;;;;;6274499;22;20436;-90
2023/08/04 11:07:03;;;;;;;3.75;2.42;;;20.60;1.00;;;;;;4619950;27;15221303;-89
2023/08/04 11:10:15;;;;;;;4.60;2.30;;;20.40;99.90;;;;;;5157755;27;20259;-89
2023/08/04 11:21:15;;;;;;;4.00;3.50;;;;;;;;;;5149177;27;20434;-89
2023/08/04 11:23:54;;;;;;;5.00;2.80;;;20.60;99.90;;;;;;5146555;28;20446;-89
2023/08/04 11:26:26;;;;;;;4.87;3.30;;;20.60;99.90;;;;;;5144385;27;20532;-89
2023/08/04 11:29:07;;;;;;;3.70;3.40;;;20.70;99.90;;;;;;5141253;28;20443;-89
2023/08/04 11:31:35;;;;;;;6.63;3.50;;;;;;;;;;5142885;28;20445;-90
2023/08/04 11:34:06;;;;;;;5.17;3.10;;;;;;;;;;5144820;28;20441;-91
2023/08/04 11:36:35;;;;;;;3.10;2.80;;;;;;;;;;5139158;27;20458;-90
2023/08/04 11:39:05;;;;;;;6.10;3.57;;;;;;;;;;5140033;28;20458;-90
2023/08/04 11:41:41;;;;;;;2.73;2.53;;;21.00;99.90;;;;;;5139993;28;20517;-90
2023/08/04 11:44:20;;;;;;;3.00;2.57;;;21.10;99.90;;;;;;5144127;28;20426;-90
2023/08/04 11:46:58;;;;;;;5.13;2.83;;;21.20;99.90;;;;;;5156302;27;20465;-90
2023/08/04 11:49:39;;;;;;;5.03;2.37;;;21.30;1.00;;;;;;5150444;27;20478;-90
2023/08/04 11:52:15;;;;;;;2.60;2.40;;;22.10;1.00;;;;;;5156404;27;20448;-89
2023/08/04 11:55:00;;;;;;;3.30;2.70;;;21.60;99.90;;;;;;5156621;27;20490;-88
2023/08/04 11:57:32;;;;;;;3.87;2.83;;;21.40;1.00;;;;;;5153577;27;20847;-89
2023/08/04 12:00:09;;;;;;;5.27;3.20;;;21.50;1.00;;;;;;5150005;28;20436;-89
2023/08/04 12:03:23;;;;;;;6.40;2.83;;;21.60;99.90;;;;;;5144144;28;20442;-90
2023/08/04 12:06:06;;;;;;;2.53;2.23;;;21.70;1.00;;;;;;5151902;27;20486;-91
2023/08/04 12:08:43;;;;;;;3.53;2.60;;;21.70;1.00;;;;;;5149644;28;20799;-90
2023/08/04 12:11:40;;;;;;;4.20;2.93;;;21.60;1.00;;;;;;5146263;28;20752;-89
2023/08/04 12:14:34;;;;;;;4.93;2.40;;;24.00;1.00;;;;;;5148724;28;20458;-90
2023/08/04 12:17:04;;;;;;;4.00;2.30;;;21.60;1.00;;;;;;5139508;28;20467;-89
2023/08/04 12:19:42;;;;;;;3.20;2.57;;;21.60;62.50;;;;;;5135687;28;20443;-89
2023/08/04 12:22:15;;;;;;;4.33;3.40;;;21.70;1.00;;;;;;5134846;28;20449;-90
2023/08/04 12:24:49;;;;;;;4.10;3.30;;;21.70;1.00;;;;;;5137548;28;20466;-90
2023/08/04 12:27:20;;;;;;;4.50;2.20;;;20.20;1.00;;;;;;5138600;28;20462;-90
2023/08/04 12:29:54;;;;;;;3.90;2.80;;;22.00;1.00;;;;;;5135065;28;20450;-91
2023/08/04 12:32:22;;;;;;;4.50;2.50;;;;;;;;;;5135043;28;20477;-90
2023/08/04 12:34:55;;;;;;;4.03;3.27;;;;;;;;;;5132172;28;20446;-89
2023/08/04 12:37:26;;;;;;;4.93;2.20;;;;;;;;;;5141872;28;20502;-88
2023/08/04 12:40:11;;;;;;;9.37;3.43;;;21.90;99.90;;;;;;5141812;28;20469;-90
2023/08/04 12:42:40;;;;;;;4.00;3.07;;;;;;;;;;5139839;28;20461;-90
2023/08/04 12:45:12;;;;;;;3.03;2.73;;;22.10;1.00;;;;;;5136211;28;20494;-89
2023/08/04 12:47:47;;;;;;;2.87;2.60;;;22.00;1.00;;;;;;5134322;28;20455;-89
2023/08/04 12:50:17;;;;;;;2.70;2.20;;;;;;;;;;5136081;28;20440;-90
2023/08/04 12:52:48;;;;;;;6.10;2.47;;;22.40;99.90;;;;;;5132430;28;20443;-90
2023/08/04 12:55:17;;;;;;;4.57;2.83;;;22.20;24.20;;;;;;5134512;28;20446;-88
2023/08/04 12:57:45;;;;;;;3.27;2.33;;;;;;;;;;5133529;28;20463;-89
2023/08/04 13:00:38;;;;;;;6.00;3.00;;;22.00;1.00;;;;;;5133945;28;20546;-90
2023/08/04 13:03:21;;;;;;;3.20;2.33;;;22.30;99.90;;;;;;5134122;28;20461;-89
2023/08/04 13:05:49;;;;;;;2.90;2.60;;;;;;;;;;5133324;28;20500;-89
2023/08/04 13:08:17;;;;;;;5.90;3.10;;;;;;;;;;5134203;28;20470;-89
2023/08/04 13:10:44;;;;;;;5.87;3.77;;;21.80;70.30;;;;;;5136061;28;20432;-89
2023/08/04 13:13:15;;;;;;;3.33;2.73;;;21.30;99.90;;;;;;5129905;28;20477;-90
2023/08/04 13:15:54;;;;;;;5.00;3.13;;;21.50;99.90;;;;;;5127479;28;20443;-90
2023/08/04 13:18:30;;;;;;;3.30;3.00;;;21.20;99.90;;;;;;5125759;28;20475;-90
2023/08/04 13:20:57;;;;;;;5.77;2.70;;;21.50;1.00;;;;;;5136798;28;20438;-87
2023/08/04 13:23:29;;;;;;;8.40;2.83;;;;;;;;;;5140633;28;20474;-89
2023/08/04 13:25:56;;;;;;;5.37;3.53;;;;;;;;;;5139613;28;20515;-86
2023/08/04 13:28:23;;;;;;;6.30;3.30;;;21.70;99.90;;;;;;5131193;28;20499;-86
2023/08/04 13:30:51;;;;;;;4.30;3.30;;;21.70;1.00;;;;;;5130019;28;20480;-85
2023/08/04 13:33:18;;;;;;;3.13;2.80;;;21.70;1.00;;;;;;5127977;28;20465;-86
2023/08/04 13:35:45;;;;;;;2.73;2.53;;;21.80;99.90;;;;;;5125710;28;20462;-86
2023/08/04 13:38:12;;;;;;;5.57;2.50;;;21.50;1.00;;;;;;5125698;28;20854;-86
2023/08/04 13:40:38;;;;;;;3.60;2.47;;;21.50;1.00;;;;;;5123466;28;20459;-86
2023/08/04 13:43:05;;;;;;;3.03;2.83;;;21.40;1.00;;;;;;5121985;28;20462;-86
2023/08/04 13:45:32;;;;;;;4.17;3.47;;;21.40;1.00;;;;;;5129046;28;20471;-86
2023/08/04 13:48:00;;;;;;;3.47;2.20;;;21.50;1.00;;;;;;5127295;28;20964;-86
2023/08/04 13:50:27;;;;;;;2.83;2.40;;;21.50;1.00;;;;;;5123710;28;20447;-86
2023/08/04 13:52:54;;;;;;;4.37;3.97;;;21.60;1.00;;;;;;5122687;28;20447;-86
2023/08/04 13:55:20;;;;;;;5.97;3.30;;;21.60;1.00;;;;;;5124077;28;20470;-86
2023/08/04 13:57:47;;;;;;;8.90;4.03;;;21.60;1.00;;;;;;5123760;28;20477;-86
2023/08/04 14:00:15;;;;;;;3.27;2.80;;;21.70;1.00;;;;;;5139242;28;20431;-85
2023/08/04 14:02:42;;;;;;;4.53;2.47;;;21.80;1.00;;;;;;5129907;28;20930;-86
2023/08/04 14:05:10;;;;;;;4.13;2.27;;;21.80;1.00;;;;;;5126826;28;20516;-86
2023/08/04 14:07:41;;;;;;;3.00;2.67;;;21.90;1.00;;;;;;5140007;28;20479;-86
2023/08/04 14:10:09;;;;;;;2.27;2.03;;;21.90;1.00;;;;;;5133512;28;20431;-87
2023/08/04 14:12:36;;;;;;;2.27;2.07;;;22.00;1.00;;;;;;5124777;28;20447;-87
2023/08/04 14:15:03;;;;;;;5.20;2.50;;;22.10;1.00;;;;;;5121774;28;20450;-87
2023/08/04 14:17:30;;;;;;;2.57;2.37;;;22.10;1.00;;;;;;5120971;28;20512;-86
2023/08/04 14:19:56;;;;;;;5.43;2.43;;;22.10;1.00;;;;;;5121965;28;20454;-86
2023/08/04 14:22:24;;;;;;;4.80;2.40;;;22.20;1.00;;;;;;5125820;28;20506;-86
2023/08/04 14:24:52;;;;;;;7.33;2.47;;;22.20;1.00;;;;;;5122379;28;20445;-86
2023/08/04 14:27:18;;;;;;;2.90;2.60;;;22.20;1.00;;;;;;5119978;28;20467;-87
2023/08/04 14:29:45;;;;;;;2.80;1.70;;;22.30;1.00;;;;;;5120328;28;20439;-86
2023/08/04 14:32:12;;;;;;;2.43;2.20;;;22.30;1.00;;;;;;5119569;28;20533;-87
2023/08/04 14:34:39;;;;;;;3.90;2.30;;;22.20;1.00;;;;;;5120547;28;20439;-87
2023/08/04 14:37:06;;;;;;;3.10;2.10;;;22.10;1.00;;;;;;5122830;28;20486;-85
2023/08/04 14:39:34;;;;;;;4.43;2.13;;;22.10;1.00;;;;;;5124567;28;20481;-86
2023/08/04 14:42:01;;;;;;;4.70;2.67;;;22.00;1.00;;;;;;5124413;28;20510;-85
2023/08/04 14:44:28;;;;;;;2.57;2.37;;;21.80;1.00;;;;;;5131581;28;20447;-86
2023/08/04 14:46:55;;;;;;;2.33;1.90;;;21.90;1.00;;;;;;5130232;28;20550;-85
2023/08/04 14:49:21;;;;;;;4.23;2.20;;;21.90;1.00;;;;;;5138389;28;20438;-86
2023/08/04 14:51:48;;;;;;;4.50;3.00;;;22.00;1.00;;;;;;5134285;28;20435;-86
2023/08/04 14:54:15;;;;;;;2.50;2.30;;;22.00;61.90;;;;;;5137265;28;20446;-86
2023/08/04 14:56:43;;;;;;;4.67;3.70;;;22.20;1.00;;;;;;5135660;28;20478;-87
2023/08/04 14:59:10;;;;;;;2.83;2.63;;;22.10;1.00;;;;;;5127392;28;20449;-86
2023/08/04 15:01:37;;;;;;;5.73;2.80;;;22.20;1.00;;;;;;5123501;28;20466;-86
2023/08/04 15:04:05;;;;;;;3.43;3.13;;;22.20;1.00;;;;;;5121606;28;20883;-86
2023/08/04 15:06:32;;;;;;;7.07;4.40;;;22.40;38.90;;;;;;5121043;28;20510;-86
2023/08/04 15:08:59;;;;;;;3.47;3.17;;;22.10;1.00;;;;;;5120054;28;20471;-86
2023/08/04 15:11:25;;;;;;;4.50;4.10;;;22.10;1.00;;;;;;5120084;28;20449;-86
2023/08/04 15:13:54;;;;;;;5.63;3.60;;;22.10;1.00;;;;;;5121266;28;20439;-86
2023/08/04 15:16:20;;;;;;;3.20;2.83;;;22.30;1.00;;;;;;5119636;28;20465;-87
2023/08/04 15:18:47;;;;;;;5.20;3.30;;;22.30;1.00;;;;;;5120493;28;20515;-87
2023/08/04 15:21:14;;;;;;;7.70;2.73;;;22.40;1.00;;;;;;5120182;28;20500;-87
2023/08/04 15:23:41;;;;;;;3.23;2.77;;;22.30;1.00;;;;;;5121337;28;20447;-87
2023/08/04 15:26:09;;;;;;;2.33;2.20;;;22.40;1.00;;;;;;5122445;28;20511;-89
2023/08/04 15:28:36;;;;;;;2.00;1.87;;;22.40;1.00;;;;;;5125051;28;20504;-88
2023/08/04 15:31:08;;;;;;;4.00;2.50;;;22.40;1.00;;;;;;5124930;28;20530;-87
2023/08/04 17:19:22;;;;;;;3.37;3.03;;;22.20;1.00;;;;;;5073193;22;20497;-89
2023/08/04 17:21:51;;;;;;;6.07;5.37;;;22.10;1.00;;;;;;5063135;28;20422;-91
2023/08/04 17:47:20;;;;;;;3.40;3.10;;;21.90;1.00;;;;;;5055525;28;20913;-91
2023/08/04 17:50:28;;;;;;;2.63;2.43;;;21.90;1.00;;;;;;5075766;28;20456;-88
2023/08/04 17:53:23;;;;;;;3.87;3.40;;;21.60;21.60;;;;;;5077060;28;20481;-89
2023/08/04 17:56:43;;;;;;;2.77;2.57;;;22.00;99.90;;;;;;5064901;28;20861;-90
2023/08/04 18:03:05;;;;;;;3.50;2.33;;;21.70;1.00;;;;;;5062544;28;20456;-89
2023/08/04 18:08:43;;;;;;;4.83;3.50;;;21.50;1.00;;;;;;5167312;22;20534;-89
2023/08/04 18:11:20;;;;;;;3.30;3.00;;;21.50;1.00;;;;;;5043764;28;20430;-89
2023/08/04 18:13:47;;;;;;;8.03;6.60;;;;;;;;;;5049205;28;20468;-88
2023/08/04 18:21:53;;;;;;;6.60;2.50;;;21.50;49.90;;;;;;4365262;26;20481;-88
2023/08/04 18:27:34;;;;;;;3.00;2.80;;;21.20;99.90;;;;;;5033533;28;20474;-89
2023/08/04 18:39:55;;;;;;;8.00;2.73;;;20.80;1.00;;;;;;4998593;28;20527;-88
2023/08/04 18:42:48;;;;;;;4.00;3.10;;;20.70;1.00;;;;;;5044963;28;20485;-88
2023/08/04 18:55:12;;;;;;;7.70;4.47;;;20.50;1.00;;;;;;4996350;28;20499;-89
2023/08/04 19:10:47;;;;;;;5.20;4.30;;;19.90;1.00;;;;;;4883659;29;20452;-89
2023/08/04 19:13:43;;;;;;;3.93;3.53;;;20.10;1.00;;;;;;4909549;29;20485;-92
2023/08/04 19:16:55;;;;;;;5.40;4.03;;;20.00;1.00;;;;;;4919988;29;20512;-89
2023/08/04 19:19:55;;;;;;;3.83;3.53;;;17.90;1.00;;;;;;4893801;29;20462;-88
2023/08/04 19:22:56;;;;;;;4.33;3.50;;;19.80;1.00;;;;;;4908854;29;20976;-90
2023/08/04 19:28:40;;;;;;;4.10;3.80;;;19.60;59.90;;;;;;5103454;22;20494;-90
2023/08/04 19:31:41;;;;;;;4.00;3.70;;;19.60;1.00;;;;;;5049710;28;20513;-88
2023/08/04 19:34:27;;;;;;;4.50;3.60;;;19.60;1.00;;;;;;5042456;28;20454;-89
2023/08/04 19:37:02;;;;;;;7.80;4.70;;;19.60;1.00;;;;;;5044562;28;20474;-89
2023/08/04 19:39:36;;;;;;;11.63;8.03;;;19.50;1.00;;;;;;5044961;28;20789;-89
2023/08/04 19:42:07;;;;;;;9.60;7.40;;;;;;;;;;5045578;28;20435;-88
2023/08/04 19:45:29;;;;;;;9.33;7.10;;;19.40;1.00;;;;;;5045803;28;20435;-88
2023/08/04 19:51:26;;;;;;;7.03;4.97;;;19.30;1.00;;;;;;4960764;29;20517;-88
2023/08/04 19:54:08;;;;;;;9.37;6.40;;;19.70;1.00;;;;;;5044826;28;20451;-89
2023/08/04 19:57:12;;;;;;;7.30;5.87;;;19.40;1.00;;;;;;5054538;28;20471;-89
2023/08/04 19:59:54;;;;;;;5.90;5.00;;;19.50;1.00;;;;;;5044180;28;20590;-89
2023/08/04 20:06:44;;;;;;;6.33;5.10;;;19.50;1.00;;;;;;5039141;28;20452;-89
2023/08/04 20:16:27;;;;;;;5.93;4.93;;;19.30;1.00;;;;;;4967041;28;20881;-89
2023/08/04 20:30:59;;;;;;;7.03;5.63;;;19.00;99.90;;;;;;5253208;22;20982;-89
2023/08/04 20:37:48;;;;;;;13.37;10.07;;;18.40;99.90;;;;;;5036632;28;20486;-89
2023/08/04 20:51:20;;;;;;;9.73;8.27;;;18.40;99.90;;;;;;1487217;26;20458;-89
2023/08/04 20:57:07;;;;;;;10.33;7.33;;;18.50;1.00;;;;;;5048134;28;20470;-90
2023/08/04 21:03:37;;;;;;;7.30;6.60;;;18.60;1.00;;;;;;5043143;28;20454;-91
2023/08/04 21:06:07;;;;;;;7.17;6.47;;;17.90;99.90;;;;;;5048191;28;20481;-91
2023/08/04 21:08:55;;;;;;;;;;;;;;;;;;;;;
2023/08/04 21:11:24;;;;;;;7.97;7.17;;;18.20;99.90;;;;;;5027817;28;20541;-90
2023/08/04 21:13:53;;;;;;;7.70;6.90;;;;;;;;;;5044372;28;20431;-89
2023/08/04 21:16:31;;;;;;;12.97;10.63;;;18.20;99.90;;;;;;5045167;28;20462;-89
2023/08/04 21:19:08;;;;;;;16.60;11.03;;;18.10;99.90;;;;;;5055049;28;20431;-89
2023/08/04 21:21:36;;;;;;;10.53;8.70;;;;;;;;;;5046541;28;20427;-89
2023/08/04 21:24:06;;;;;;;8.77;7.07;;;;;;;;;;5045081;28;20496;-89
2023/08/04 21:26:42;;;;;;;8.40;7.60;;;18.00;99.90;;;;;;5043765;28;20474;-90
2023/08/04 21:29:15;;;;;;;10.77;7.23;;;18.00;99.90;;;;;;5043099;28;20432;-89
2023/08/04 21:31:47;;;;;;;7.87;6.10;;;;;;;;;;5043211;28;20470;-89
2023/08/04 21:34:15;;;;;;;7.83;6.60;;;;;;;;;;5042257;28;20454;-89
2023/08/04 21:36:43;;;;;;;8.73;7.80;;;;;;;;;;5045218;28;20466;-88
2023/08/04 21:39:21;;;;;;;7.13;6.10;;;;;;;;;;5043351;28;20466;-89
2023/08/04 21:41:55;;;;;;;7.43;6.70;;;18.00;1.00;;;;;;5040725;28;20478;-90
2023/08/04 21:44:43;;;;;;;7.20;6.33;;;18.20;99.90;;;;;;5046094;28;20473;-87
2023/08/04 21:47:15;;;;;;;12.00;7.23;;;;;;;;;;5040235;28;20835;-87
2023/08/04 21:49:45;;;;;;;8.83;6.50;;;;;;;;;;5039542;28;20458;-88
2023/08/04 21:52:24;;;;;;;11.07;6.77;;;18.10;99.90;;;;;;5040576;28;20457;-88
2023/08/04 21:55:00;;;;;;;8.53;7.20;;;18.10;99.90;;;;;;5050383;28;20477;-88
2023/08/04 22:00:43;;;;;;;8.67;7.03;;;17.80;99.90;;;;;;5031113;28;20439;-89
2023/08/04 22:03:22;;;;;;;6.83;6.13;;;17.80;99.90;;;;;;5005438;28;20502;-90
2023/08/04 22:05:59;;;;;;;8.33;6.50;;;17.80;1.00;;;;;;5023723;28;20440;-89
2023/08/04 22:08:35;;;;;;;7.23;6.00;;;18.10;1.00;;;;;;5020235;28;20475;-89
2023/08/04 22:11:24;;;;;;;6.67;6.00;;;18.10;1.00;;;;;;5020685;28;20465;-89
2023/08/04 22:14:28;;;;;;;7.87;7.10;;;17.80;99.90;;;;;;5020557;28;20455;-88
2023/08/04 22:17:11;;;;;;;8.23;7.33;;;17.80;99.90;;;;;;5029948;28;21020;-88
2023/08/04 22:19:54;;;;;;;10.93;6.53;;;17.70;1.00;;;;;;5030762;28;20503;-88
2023/08/04 22:22:32;;;;;;;8.97;7.47;;;17.70;1.00;;;;;;5026615;28;20795;-88
2023/08/04 22:25:04;;;;;;;18.43;7.40;;;17.60;1.00;;;;;;5020321;28;20531;-88
2023/08/04 22:27:47;;;;;;;7.50;6.10;;;17.50;1.00;;;;;;5022750;28;20550;-88
2023/08/04 22:30:26;;;;;;;11.47;8.70;;;17.40;1.00;;;;;;5038302;28;20436;-88
2023/08/04 22:33:14;;;;;;;13.90;9.87;;;17.40;1.00;;;;;;5022635;28;20458;-88
2023/08/04 22:35:44;;;;;;;21.23;13.47;;;;;;;;;;5007568;28;20550;-88
2023/08/04 22:38:25;;;;;;;36.23;19.90;;;17.30;99.90;;;;;;5020720;28;20831;-88
2023/08/04 22:40:57;;;;;;;36.73;22.73;;;;;;;;;;5020917;28;20439;-89
2023/08/04 22:43:38;;;;;;;38.83;22.80;;;17.40;1.00;;;;;;5020456;28;20447;-88
2023/08/04 22:46:20;;;;;;;33.90;20.80;;;17.20;1.00;;;;;;5019016;28;20483;-89
2023/08/04 22:49:10;;;;;;;18.27;11.90;;;17.30;99.90;;;;;;5018976;28;20472;-90
2023/08/04 22:51:40;;;;;;;7.33;6.30;;;;;;;;;;5021160;28;20963;-88
2023/08/04 22:54:13;;;;;;;10.43;6.90;;;;;;;;;;5022090;28;20489;-89
2023/08/04 22:56:44;;;;;;;7.20;6.40;;;17.70;1.00;;;;;;5024066;28;20470;-88
2023/08/04 22:59:25;;;;;;;7.60;6.60;;;17.90;99.90;;;;;;5018836;28;20459;-90
2023/08/04 23:04:41;;;;;;;7.40;6.10;;;;;;;;;;5036294;28;20456;-88
2023/08/04 23:07:09;;;;;;;10.07;6.40;;;;;;;;;;5034604;28;20479;-89
2023/08/04 23:09:45;;;;;;;8.30;7.50;;;17.50;1.00;;;;;;5019277;28;20486;-88
2023/08/04 23:12:19;;;;;;;9.67;7.60;;;;;;;;;;5019054;28;20493;-88
2023/08/04 23:14:48;;;;;;;9.67;7.93;;;17.40;99.90;;;;;;5019059;28;20454;-88
2023/08/04 23:17:25;;;;;;;9.47;8.20;;;17.30;1.00;;;;;;5017433;28;20504;-88
2023/08/04 23:19:55;;;;;;;8.23;7.43;;;;;;;;;;5018729;28;20485;-88
2023/08/04 23:22:37;;;;;;;6.80;6.07;;;17.30;1.00;;;;;;5018823;28;20817;-88
2023/08/04 23:27:59;;;;;;;11.77;9.10;;;;;;;;;;5010935;28;20487;-89
2023/08/04 23:30:55;;;;;;;10.83;8.20;;;17.10;99.90;;;;;;5018419;28;20447;-87
2023/08/04 23:33:26;;;;;;;10.43;8.43;;;17.20;1.00;;;;;;5020884;28;20506;-88
2023/08/04 23:35:58;;;;;;;8.97;6.70;;;17.40;1.00;;;;;;5035127;28;20511;-87
2023/08/04 23:38:28;;;;;;;8.50;6.27;;;;;;;;;;5037033;28;20428;-88
2023/08/04 23:41:04;;;;;;;6.13;5.37;;;17.10;1.00;;;;;;5030006;28;20440;-89
2023/08/04 23:43:31;;;;;;;5.20;4.60;;;;;;;;;;5025899;28;20442;-88
2023/08/04 23:46:05;;;;;;;4.37;3.83;;;;;;;;;;5020091;28;20506;-89
2023/08/04 23:48:43;;;;;;;11.33;6.40;;;17.10;1.00;;;;;;5022737;28;20457;-89
2023/08/04 23:51:28;;;;;;;6.20;4.57;;;17.20;1.00;;;;;;5030942;28;20455;-88
2023/08/04 23:53:58;;;;;;;7.90;3.73;;;;;;;;;;5029822;28;20454;-88